Time;durP1;ratioP1;P1;durP2;ratioP2;P2;SDS_P1;SDS_P2;PMS_P1;PMS_P2;Temp;Humidity;BMP_temperature;BMP_pressure;BME280_temperature;BME280_humidity;BME280_pressure;Samples;Min_cycle;Max_cycle;Signal;HPM_P1;HPM_P2
2022/01/31 00:00:27;;;;;;;5.53;2.30;;;2.90;99.90;;;;;;5013209;28;20219;-73
2022/01/31 00:02:53;;;;;;;2.17;1.67;;;2.90;99.90;;;;;;5012913;28;20198;-73
2022/01/31 00:05:19;;;;;;;3.87;2.80;;;2.90;99.90;;;;;;5013577;28;20524;-73
2022/01/31 00:07:44;;;;;;;4.33;2.27;;;2.90;99.90;;;;;;5015329;28;20245;-74
2022/01/31 00:10:12;;;;;;;1.50;1.40;;;2.80;99.90;;;;;;5017102;28;20518;-73
2022/01/31 00:12:58;;;;;;;8.77;2.05;;;2.80;99.90;;;;;;5016644;28;20167;-74
2022/01/31 00:15:24;;;;;;;7.47;2.60;;;2.80;99.90;;;;;;5016883;28;20600;-74
2022/01/31 00:17:50;;;;;;;2.17;1.60;;;2.90;99.90;;;;;;5016461;28;20230;-73
2022/01/31 00:20:16;;;;;;;7.45;2.67;;;2.80;99.90;;;;;;5016462;28;20222;-73
2022/01/31 00:22:41;;;;;;;3.60;1.70;;;2.90;99.90;;;;;;5016680;28;20218;-73
2022/01/31 00:25:07;;;;;;;1.60;1.50;;;2.90;99.90;;;;;;5016486;28;20201;-73
2022/01/31 00:27:33;;;;;;;4.45;1.70;;;2.90;99.90;;;;;;5016173;28;20170;-74
2022/01/31 00:29:59;;;;;;;2.00;1.87;;;3.00;99.90;;;;;;5016019;28;20201;-73
2022/01/31 00:32:27;;;;;;;4.23;2.23;;;3.00;99.90;;;;;;5016192;28;20641;-74
2022/01/31 00:34:52;;;;;;;3.10;2.80;;;3.00;99.90;;;;;;5015559;28;20182;-72
2022/01/31 00:37:18;;;;;;;1.87;1.60;;;3.00;99.90;;;;;;5016361;28;20251;-73
2022/01/31 00:39:43;;;;;;;4.67;2.80;;;3.00;99.90;;;;;;5015686;28;20522;-73
2022/01/31 00:42:09;;;;;;;5.20;1.47;;;3.10;99.90;;;;;;5014825;28;20171;-74
2022/01/31 00:44:48;;;;;;;7.73;2.77;;;3.10;99.90;;;;;;5015856;28;20178;-73
2022/01/31 00:47:23;;;;;;;1.95;1.83;;;3.10;99.90;;;;;;5015852;28;20549;-73
2022/01/31 00:49:51;;;;;;;2.35;1.30;;;3.10;99.90;;;;;;5015548;28;20329;-73
2022/01/31 00:52:17;;;;;;;5.28;1.45;;;3.10;99.90;;;;;;5015825;28;20633;-73
2022/01/31 00:54:43;;;;;;;3.15;2.17;;;3.20;99.90;;;;;;5015676;28;20186;-72
2022/01/31 00:57:09;;;;;;;3.30;2.10;;;3.20;99.90;;;;;;5015789;28;20195;-73
2022/01/31 00:59:35;;;;;;;6.10;2.60;;;3.20;99.90;;;;;;5015303;28;20948;-74
2022/01/31 01:02:00;;;;;;;3.63;2.03;;;3.30;99.90;;;;;;5014427;28;20185;-73
2022/01/31 01:04:26;;;;;;;5.07;2.03;;;3.30;99.90;;;;;;5015133;28;20422;-73
2022/01/31 01:06:51;;;;;;;3.17;1.73;;;3.40;99.90;;;;;;5015553;28;20194;-74
2022/01/31 01:09:17;;;;;;;2.40;1.93;;;3.50;99.90;;;;;;5015021;28;20198;-74
2022/01/31 01:11:43;;;;;;;5.63;1.77;;;3.60;99.90;;;;;;5015712;28;20548;-73
2022/01/31 01:14:09;;;;;;;7.43;2.20;;;3.60;99.90;;;;;;5015304;28;20166;-73
2022/01/31 01:16:34;;;;;;;3.55;2.05;;;3.60;99.90;;;;;;5015105;28;20256;-72
2022/01/31 01:19:00;;;;;;;1.90;1.70;;;3.60;99.90;;;;;;5014227;28;20645;-71
2022/01/31 01:21:26;;;;;;;2.73;2.30;;;3.60;99.90;;;;;;5015358;28;20194;-74
2022/01/31 01:23:51;;;;;;;1.90;1.80;;;3.70;99.90;;;;;;5015551;28;20165;-74
2022/01/31 01:26:18;;;;;;;6.40;1.90;;;3.60;99.90;;;;;;5015184;28;20174;-74
2022/01/31 01:28:45;;;;;;;2.10;1.90;;;3.60;99.90;;;;;;5013254;28;20183;-74
2022/01/31 01:31:11;;;;;;;2.22;2.13;;;3.70;99.90;;;;;;5015017;28;20178;-73
2022/01/31 01:33:40;;;;;;;2.43;2.23;;;3.70;99.90;;;;;;5014758;28;20171;-73
2022/01/31 01:36:07;;;;;;;3.10;2.90;;;3.80;99.90;;;;;;5014561;28;20457;-74
2022/01/31 01:38:33;;;;;;;9.50;2.53;;;3.80;99.90;;;;;;5029745;28;20171;-73
2022/01/31 01:40:59;;;;;;;2.45;2.22;;;3.80;99.90;;;;;;5014989;28;20167;-73
2022/01/31 01:43:27;;;;;;;2.65;2.45;;;3.90;99.90;;;;;;5014741;28;20191;-74
2022/01/31 01:45:53;;;;;;;4.22;2.05;;;3.90;99.90;;;;;;5014963;28;20198;-73
2022/01/31 01:48:20;;;;;;;4.22;1.67;;;3.90;99.90;;;;;;5014247;28;20312;-74
2022/01/31 01:50:46;;;;;;;1.90;1.77;;;3.90;99.90;;;;;;5014498;28;20572;-74
2022/01/31 01:53:12;;;;;;;5.63;1.50;;;3.90;99.90;;;;;;5014517;28;20175;-74
2022/01/31 01:55:38;;;;;;;1.35;1.33;;;3.90;99.90;;;;;;5002019;28;20221;-74
2022/01/31 01:58:06;;;;;;;2.88;1.48;;;4.00;99.90;;;;;;4994592;28;20206;-74
2022/01/31 02:00:49;;;;;;;1.27;1.20;;;4.00;99.90;;;;;;4995004;28;20217;-73
2022/01/31 02:03:15;;;;;;;3.58;1.45;;;4.00;99.90;;;;;;5004018;28;20225;-74
2022/01/31 02:05:41;;;;;;;2.10;1.95;;;3.90;99.90;;;;;;5014562;28;20568;-74
2022/01/31 02:08:08;;;;;;;1.60;1.27;;;4.00;99.90;;;;;;5029244;28;20248;-73
2022/01/31 02:10:34;;;;;;;2.00;1.80;;;4.00;99.90;;;;;;5014240;28;20430;-73
2022/01/31 02:13:05;;;;;;;1.80;1.30;;;3.90;99.90;;;;;;5014506;28;20510;-73
2022/01/31 02:15:31;;;;;;;1.13;0.82;;;4.00;99.90;;;;;;5014530;28;20163;-74
2022/01/31 02:17:56;;;;;;;1.90;1.80;;;4.00;99.90;;;;;;5014016;28;20237;-74
2022/01/31 02:20:22;;;;;;;2.57;2.13;;;4.00;99.90;;;;;;5014058;28;20430;-73
2022/01/31 02:22:49;;;;;;;2.87;2.43;;;4.00;99.90;;;;;;5014067;28;20200;-72
2022/01/31 02:25:15;;;;;;;1.95;1.35;;;4.10;99.90;;;;;;5013116;28;20175;-72
2022/01/31 02:27:41;;;;;;;1.67;1.57;;;4.00;99.90;;;;;;5014111;28;20170;-72
2022/01/31 02:30:10;;;;;;;3.07;2.87;;;4.00;99.90;;;;;;5013315;28;20940;-74
2022/01/31 02:32:36;;;;;;;1.67;1.35;;;4.10;99.90;;;;;;5014141;28;20556;-72
2022/01/31 02:35:02;;;;;;;7.77;2.67;;;4.10;99.90;;;;;;5014054;28;20270;-73
2022/01/31 02:37:28;;;;;;;4.07;2.00;;;4.10;99.90;;;;;;5013710;28;20594;-74
2022/01/31 02:39:53;;;;;;;1.90;1.43;;;4.00;99.90;;;;;;5029002;28;20267;-72
2022/01/31 02:42:19;;;;;;;1.97;1.77;;;4.00;99.90;;;;;;5014190;28;20174;-73
2022/01/31 02:44:46;;;;;;;1.87;1.77;;;4.00;99.90;;;;;;5013911;28;20163;-72
2022/01/31 02:47:16;;;;;;;2.42;2.00;;;4.00;99.90;;;;;;5013805;28;20178;-73
2022/01/31 02:49:49;;;;;;;3.10;2.35;;;4.00;99.90;;;;;;5013259;28;20218;-71
2022/01/31 02:52:17;;;;;;;3.67;2.33;;;4.00;99.90;;;;;;5013719;28;20171;-73
2022/01/31 02:54:43;;;;;;;2.30;2.10;;;4.00;99.90;;;;;;5008599;28;20241;-72
2022/01/31 02:57:09;;;;;;;2.85;2.15;;;4.10;99.90;;;;;;4994150;28;20190;-72
2022/01/31 02:59:35;;;;;;;2.10;1.92;;;4.00;99.90;;;;;;5004283;28;20245;-72
2022/01/31 03:02:01;;;;;;;2.70;2.10;;;4.00;99.90;;;;;;5013708;28;20530;-73
2022/01/31 03:04:26;;;;;;;4.47;1.97;;;3.90;99.90;;;;;;5013552;28;20178;-74
2022/01/31 03:06:53;;;;;;;2.33;2.13;;;3.90;99.90;;;;;;5013835;28;20178;-73
2022/01/31 03:09:19;;;;;;;3.83;3.03;;;3.90;99.90;;;;;;5013469;28;20187;-72
2022/01/31 03:11:45;;;;;;;4.85;2.03;;;3.80;99.90;;;;;;5013694;28;20190;-74
2022/01/31 03:14:11;;;;;;;1.85;1.65;;;3.80;99.90;;;;;;5014006;28;20186;-74
2022/01/31 03:16:40;;;;;;;5.03;2.13;;;3.80;99.90;;;;;;5013589;28;20195;-72
2022/01/31 03:19:07;;;;;;;2.90;2.20;;;3.80;99.90;;;;;;5013033;28;20191;-72
2022/01/31 03:21:33;;;;;;;2.78;1.80;;;3.80;99.90;;;;;;5013489;28;20174;-72
2022/01/31 03:23:59;;;;;;;3.87;3.50;;;3.80;99.90;;;;;;5013512;28;20169;-71
2022/01/31 03:26:24;;;;;;;3.37;2.13;;;3.80;99.90;;;;;;5013732;28;20175;-73
2022/01/31 03:28:52;;;;;;;2.10;1.90;;;3.80;99.90;;;;;;5012745;28;20605;-72
2022/01/31 03:31:18;;;;;;;4.93;2.85;;;3.80;99.90;;;;;;5013374;28;20218;-72
2022/01/31 03:33:49;;;;;;;4.10;2.22;;;3.80;99.90;;;;;;5013313;28;20241;-74
2022/01/31 03:36:15;;;;;;;3.38;1.77;;;3.90;99.90;;;;;;5013438;28;20281;-73
2022/01/31 03:38:41;;;;;;;2.43;2.07;;;3.90;99.90;;;;;;5013200;28;20701;-73
2022/01/31 03:41:08;;;;;;;6.10;2.03;;;3.90;99.90;;;;;;5013575;28;20171;-74
2022/01/31 03:43:34;;;;;;;6.28;3.33;;;3.90;99.90;;;;;;5017114;28;20163;-71
2022/01/31 03:46:00;;;;;;;1.58;1.58;;;4.00;99.90;;;;;;5016991;28;20185;-71
2022/01/31 03:48:28;;;;;;;1.60;1.47;;;4.00;99.90;;;;;;5016581;28;20249;-72
2022/01/31 03:50:54;;;;;;;5.68;1.48;;;4.10;99.90;;;;;;5017174;28;20522;-71
2022/01/31 03:53:20;;;;;;;5.75;2.47;;;4.10;99.90;;;;;;5017015;28;20618;-72
2022/01/31 03:55:46;;;;;;;1.10;1.10;;;4.20;99.90;;;;;;5015686;28;20194;-73
2022/01/31 03:58:13;;;;;;;1.90;1.67;;;4.20;99.90;;;;;;5016161;28;20673;-72
2022/01/31 04:00:39;;;;;;;1.90;1.80;;;4.30;99.90;;;;;;5017103;28;20230;-72
2022/01/31 04:03:05;;;;;;;1.50;1.02;;;4.30;99.90;;;;;;5016680;28;20167;-73
2022/01/31 04:05:31;;;;;;;3.33;2.03;;;4.30;99.90;;;;;;5016591;28;20182;-71
2022/01/31 04:07:57;;;;;;;1.83;1.50;;;4.30;99.90;;;;;;5016166;28;20175;-72
2022/01/31 04:10:23;;;;;;;7.95;2.45;;;4.30;99.90;;;;;;5017036;28;20197;-73
2022/01/31 04:12:49;;;;;;;8.52;2.25;;;4.20;99.90;;;;;;5016472;28;20179;-72
2022/01/31 04:15:15;;;;;;;5.50;2.03;;;4.20;99.90;;;;;;5016349;28;20242;-72
2022/01/31 04:17:41;;;;;;;10.30;2.07;;;4.20;99.90;;;;;;5016054;28;20673;-72
2022/01/31 04:20:08;;;;;;;2.33;1.50;;;4.20;99.90;;;;;;5016413;28;20187;-72
2022/01/31 04:22:38;;;;;;;3.22;2.33;;;4.10;99.90;;;;;;5014991;28;20171;-73
2022/01/31 04:25:06;;;;;;;5.25;3.25;;;4.10;99.90;;;;;;5015126;28;20175;-73
2022/01/31 04:27:44;;;;;;;3.10;2.20;;;4.10;99.90;;;;;;5016117;28;20625;-73
2022/01/31 04:30:12;;;;;;;1.67;1.55;;;4.10;99.90;;;;;;5016070;28;20197;-71
2022/01/31 04:32:38;;;;;;;2.78;1.90;;;4.00;99.90;;;;;;5016185;28;20175;-72
2022/01/31 04:35:04;;;;;;;5.50;1.80;;;4.10;99.90;;;;;;5031343;28;20197;-73
2022/01/31 04:37:30;;;;;;;1.95;1.80;;;4.10;99.90;;;;;;5016500;28;20448;-72
2022/01/31 04:39:56;;;;;;;2.28;2.13;;;4.10;99.90;;;;;;5020493;28;20266;-72
2022/01/31 04:42:23;;;;;;;1.70;1.60;;;4.10;99.90;;;;;;5021058;28;20206;-73
2022/01/31 04:44:49;;;;;;;6.70;1.80;;;4.10;99.90;;;;;;5022986;28;20231;-73
2022/01/31 04:47:14;;;;;;;1.37;1.23;;;4.10;99.90;;;;;;5017265;28;20210;-74
2022/01/31 04:49:40;;;;;;;2.30;1.73;;;4.20;99.90;;;;;;5015723;28;20229;-74
2022/01/31 04:52:06;;;;;;;9.33;2.60;;;4.30;99.90;;;;;;5015727;28;20194;-74
2022/01/31 04:54:32;;;;;;;1.10;1.00;;;4.30;99.90;;;;;;5015801;28;20507;-72
2022/01/31 04:56:57;;;;;;;1.33;1.20;;;4.40;99.90;;;;;;5015827;28;20457;-74
2022/01/31 04:59:23;;;;;;;3.03;2.20;;;4.40;99.90;;;;;;5013734;28;20198;-74
2022/01/31 05:01:49;;;;;;;2.80;1.87;;;4.50;99.90;;;;;;5015797;28;20178;-72
2022/01/31 05:04:15;;;;;;;9.23;2.33;;;4.50;99.90;;;;;;5015678;28;20868;-74
2022/01/31 05:06:43;;;;;;;2.93;1.27;;;4.60;99.90;;;;;;5015533;28;20222;-73
2022/01/31 05:09:10;;;;;;;1.90;1.80;;;4.60;99.90;;;;;;5014964;28;20194;-73
2022/01/31 05:11:36;;;;;;;3.72;1.38;;;4.70;99.90;;;;;;5015433;28;20570;-73
2022/01/31 05:14:02;;;;;;;2.77;1.87;;;4.80;99.90;;;;;;5015299;28;20219;-74
2022/01/31 05:16:28;;;;;;;3.40;1.13;;;4.80;99.90;;;;;;5015644;28;20420;-71
2022/01/31 05:18:53;;;;;;;1.23;1.20;;;4.80;99.90;;;;;;5014829;28;20197;-73
2022/01/31 05:21:19;;;;;;;1.90;1.80;;;4.80;99.90;;;;;;5015221;28;20171;-73
2022/01/31 05:23:47;;;;;;;1.47;1.23;;;4.80;99.90;;;;;;5015204;28;20620;-74
2022/01/31 05:26:13;;;;;;;2.53;1.73;;;4.80;99.90;;;;;;5015312;28;20176;-73
2022/01/31 05:28:39;;;;;;;3.17;2.53;;;4.80;99.90;;;;;;5014193;28;20629;-74
2022/01/31 05:31:07;;;;;;;5.07;1.75;;;4.80;99.90;;;;;;5015021;28;20757;-75
2022/01/31 05:33:33;;;;;;;3.22;2.28;;;4.70;99.90;;;;;;5015072;28;20537;-73
2022/01/31 05:35:59;;;;;;;1.30;1.10;;;4.80;99.90;;;;;;5015149;28;20175;-74
2022/01/31 05:38:25;;;;;;;2.63;1.27;;;4.70;99.90;;;;;;5014922;28;20400;-73
2022/01/31 05:40:50;;;;;;;3.67;2.15;;;4.80;99.90;;;;;;5015141;28;20194;-71
2022/01/31 05:43:19;;;;;;;6.57;2.33;;;4.80;99.90;;;;;;5014859;28;20167;-71
2022/01/31 05:45:45;;;;;;;3.45;1.95;;;4.90;99.90;;;;;;5014873;28;20545;-75
2022/01/31 05:48:11;;;;;;;4.90;2.05;;;4.90;99.90;;;;;;5014516;28;20503;-74
2022/01/31 05:50:36;;;;;;;1.20;1.10;;;5.00;99.90;;;;;;5029712;28;20217;-72
2022/01/31 05:53:02;;;;;;;1.47;1.37;;;5.00;99.90;;;;;;5014908;28;20581;-73
2022/01/31 05:55:28;;;;;;;1.53;1.43;;;5.00;99.90;;;;;;5015182;28;20183;-73
2022/01/31 05:57:53;;;;;;;6.10;3.10;;;5.00;99.90;;;;;;5013927;28;20453;-71
2022/01/31 06:00:19;;;;;;;1.43;1.33;;;5.00;99.90;;;;;;5014560;28;20545;-71
2022/01/31 06:02:50;;;;;;;2.07;1.97;;;5.00;99.90;;;;;;5014484;28;20250;-73
2022/01/31 06:05:15;;;;;;;2.22;1.63;;;5.00;99.90;;;;;;5013752;28;20166;-71
2022/01/31 06:07:41;;;;;;;1.57;1.47;;;5.00;99.90;;;;;;5014138;28;20221;-70
2022/01/31 06:10:07;;;;;;;3.90;1.47;;;5.00;99.90;;;;;;5014242;28;20259;-69
2022/01/31 06:12:32;;;;;;;2.10;1.90;;;5.00;99.90;;;;;;5014239;28;20171;-71
2022/01/31 06:14:58;;;;;;;6.63;2.83;;;5.00;99.90;;;;;;5014219;28;20430;-72
2022/01/31 06:17:23;;;;;;;1.93;1.83;;;4.90;99.90;;;;;;5029172;28;20206;-71
2022/01/31 06:19:49;;;;;;;3.70;2.20;;;4.90;99.90;;;;;;5013305;28;20278;-72
2022/01/31 06:22:15;;;;;;;1.67;1.57;;;5.00;99.90;;;;;;5014463;28;20233;-73
2022/01/31 06:24:40;;;;;;;1.70;1.60;;;5.00;99.90;;;;;;5014043;28;20562;-72
2022/01/31 06:27:06;;;;;;;9.33;2.00;;;4.90;99.90;;;;;;5012929;28;20166;-74
2022/01/31 06:29:32;;;;;;;1.70;1.60;;;4.90;99.90;;;;;;5004680;28;20203;-73
2022/01/31 06:31:57;;;;;;;3.20;2.00;;;4.90;99.90;;;;;;4994354;28;20168;-74
2022/01/31 06:34:23;;;;;;;2.00;1.70;;;4.90;99.90;;;;;;4994315;28;20172;-72
2022/01/31 06:36:48;;;;;;;2.90;1.90;;;4.90;99.90;;;;;;4998771;28;20231;-73
2022/01/31 06:39:14;;;;;;;3.03;2.00;;;4.90;99.90;;;;;;5013286;28;20269;-72
2022/01/31 06:41:40;;;;;;;1.57;1.47;;;4.90;99.90;;;;;;5014195;28;20622;-72
2022/01/31 06:44:05;;;;;;;2.43;2.23;;;5.00;99.90;;;;;;5013515;28;20245;-72
2022/01/31 06:46:31;;;;;;;1.83;1.73;;;5.00;99.90;;;;;;5001812;28;20178;-72
2022/01/31 06:48:57;;;;;;;3.77;2.47;;;4.90;99.90;;;;;;5006749;28;20604;-72
2022/01/31 06:51:22;;;;;;;2.90;2.60;;;4.90;99.90;;;;;;5012498;28;20198;-71
2022/01/31 06:53:49;;;;;;;9.93;1.27;;;4.90;99.90;;;;;;5012167;28;20233;-71
2022/01/31 06:56:16;;;;;;;1.70;1.60;;;4.90;99.90;;;;;;5006381;28;20191;-72
2022/01/31 06:58:42;;;;;;;3.25;2.67;;;4.80;99.90;;;;;;5004539;28;20229;-72
2022/01/31 07:01:07;;;;;;;6.37;2.27;;;4.80;99.90;;;;;;5012115;28;20255;-72
2022/01/31 07:03:36;;;;;;;4.10;2.03;;;4.70;99.90;;;;;;5003357;28;20661;-72
2022/01/31 07:06:02;;;;;;;15.65;3.25;;;4.60;99.90;;;;;;5008587;28;20249;-72
2022/01/31 07:08:28;;;;;;;9.77;2.55;;;4.60;99.90;;;;;;5011294;28;20640;-71
2022/01/31 07:10:54;;;;;;;7.37;1.33;;;4.50;99.90;;;;;;5008599;28;20257;-73
2022/01/31 07:15:58;;;;;;;2.17;2.08;;;4.50;99.90;;;;;;5011865;28;20233;-73
2022/01/31 07:18:23;;;;;;;1.87;1.77;;;4.50;99.90;;;;;;5014556;28;20605;-74
2022/01/31 07:20:52;;;;;;;4.30;1.90;;;4.50;99.90;;;;;;5014200;28;20229;-70
2022/01/31 07:23:24;;;;;;;3.72;1.55;;;4.50;99.90;;;;;;5012842;28;20166;-71
2022/01/31 07:25:50;;;;;;;3.42;2.38;;;4.50;99.90;;;;;;5014576;28;20199;-71
2022/01/31 07:28:16;;;;;;;2.83;2.63;;;4.50;99.90;;;;;;5015273;28;20707;-70
2022/01/31 07:30:52;;;;;;;2.38;2.28;;;4.50;99.90;;;;;;5014009;28;20457;-71
2022/01/31 07:33:18;;;;;;;2.35;2.15;;;4.50;99.90;;;;;;5013442;28;20166;-70
2022/01/31 07:35:47;;;;;;;4.03;1.65;;;4.50;99.90;;;;;;5015791;28;20233;-73
2022/01/31 07:38:13;;;;;;;2.75;1.77;;;4.50;99.90;;;;;;5015392;28;20253;-70
2022/01/31 07:40:39;;;;;;;1.67;1.30;;;4.50;99.90;;;;;;5015867;28;20187;-74
2022/01/31 07:43:05;;;;;;;5.55;2.05;;;4.50;99.90;;;;;;5014941;28;20440;-72
2022/01/31 07:45:31;;;;;;;2.85;2.35;;;4.60;99.90;;;;;;5015018;28;20254;-69
2022/01/31 07:47:56;;;;;;;2.87;2.17;;;4.50;99.90;;;;;;5013659;28;20282;-71
2022/01/31 07:50:22;;;;;;;2.70;1.87;;;4.50;99.90;;;;;;5014650;28;20260;-70
2022/01/31 07:52:48;;;;;;;6.50;2.40;;;4.60;99.90;;;;;;5012975;28;20254;-70
2022/01/31 07:55:14;;;;;;;3.77;1.77;;;4.60;99.90;;;;;;5015251;28;20803;-70
2022/01/31 07:57:45;;;;;;;1.47;1.37;;;4.60;99.90;;;;;;5029921;28;20463;-71
2022/01/31 08:00:12;;;;;;;3.88;1.80;;;4.60;99.90;;;;;;5015188;28;20204;-70
2022/01/31 08:02:38;;;;;;;3.50;1.45;;;4.60;99.90;;;;;;5027772;28;20179;-70
2022/01/31 08:05:05;;;;;;;1.10;1.00;;;4.70;99.90;;;;;;5015201;28;20171;-69
2022/01/31 08:07:31;;;;;;;2.08;1.98;;;4.70;99.90;;;;;;5014734;28;20728;-71
2022/01/31 08:09:57;;;;;;;1.47;1.37;;;4.70;99.90;;;;;;5012437;28;20277;-69
2022/01/31 08:12:33;;;;;;;1.53;1.43;;;4.70;99.90;;;;;;5014827;28;20190;-73
2022/01/31 08:15:04;;;;;;;2.10;1.75;;;4.80;99.90;;;;;;5026644;28;20205;-70
2022/01/31 08:17:29;;;;;;;1.55;1.45;;;4.80;99.90;;;;;;5010655;28;20263;-71
2022/01/31 08:19:55;;;;;;;2.57;2.37;;;4.90;99.90;;;;;;5012964;28;20195;-69
2022/01/31 08:22:20;;;;;;;3.53;1.70;;;4.90;99.90;;;;;;5008958;28;20173;-70
2022/01/31 08:24:46;;;;;;;5.80;1.77;;;5.00;99.90;;;;;;5014401;28;20176;-72
2022/01/31 08:27:12;;;;;;;1.10;1.00;;;5.00;99.90;;;;;;5014224;28;20646;-72
2022/01/31 08:29:39;;;;;;;0.97;0.80;;;5.10;99.90;;;;;;5014291;28;20199;-71
2022/01/31 08:32:14;;;;;;;5.30;1.17;;;5.10;99.90;;;;;;5014667;28;20231;-72
2022/01/31 08:37:25;;;;;;;0.85;0.80;;;5.20;99.90;;;;;;5013620;28;20210;-71
2022/01/31 08:39:51;;;;;;;1.05;0.98;;;5.30;99.90;;;;;;5011336;28;20281;-72
2022/01/31 08:42:17;;;;;;;0.50;0.50;;;5.30;99.90;;;;;;5014421;28;20246;-74
2022/01/31 08:44:42;;;;;;;3.70;0.60;;;5.30;99.90;;;;;;5012472;28;20392;-74
2022/01/31 08:47:08;;;;;;;1.03;0.73;;;5.50;99.90;;;;;;5013325;28;20418;-73
2022/01/31 08:49:36;;;;;;;0.60;0.47;;;5.40;99.90;;;;;;5013535;28;20252;-74
2022/01/31 08:52:05;;;;;;;1.20;0.60;;;5.50;99.90;;;;;;5013558;28;20648;-72
2022/01/31 08:54:33;;;;;;;0.85;0.85;;;5.50;99.90;;;;;;5011949;28;20233;-73
2022/01/31 08:56:59;;;;;;;2.10;1.20;;;5.60;99.90;;;;;;5014053;28;20291;-71
2022/01/31 08:59:26;;;;;;;0.60;0.60;;;5.70;99.90;;;;;;5013619;28;20184;-73
2022/01/31 09:02:02;;;;;;;0.57;0.57;;;5.80;99.90;;;;;;5013551;28;20175;-70
2022/01/31 09:04:41;;;;;;;0.52;0.52;;;5.90;99.90;;;;;;5012839;28;20177;-71
2022/01/31 09:07:07;;;;;;;10.90;1.40;;;5.90;99.90;;;;;;5014037;28;20619;-67
2022/01/31 09:09:33;;;;;;;0.93;0.93;;;5.90;99.90;;;;;;5013311;28;20198;-72
2022/01/31 09:11:59;;;;;;;0.90;0.90;;;6.00;99.90;;;;;;5006188;28;20534;-72
2022/01/31 09:14:25;;;;;;;1.00;1.00;;;6.10;99.90;;;;;;5013975;28;20173;-72
2022/01/31 09:16:51;;;;;;;7.85;2.22;;;6.30;99.90;;;;;;5014464;28;20208;-72
2022/01/31 09:19:17;;;;;;;3.50;1.80;;;6.40;99.90;;;;;;5014223;28;20567;-70
2022/01/31 09:21:44;;;;;;;1.47;1.10;;;6.60;99.90;;;;;;5014950;28;20267;-72
2022/01/31 09:24:10;;;;;;;2.22;0.95;;;6.90;99.90;;;;;;5015244;28;20408;-73
2022/01/31 09:26:37;;;;;;;0.87;0.87;;;7.40;99.90;;;;;;5014982;28;20232;-72
2022/01/31 09:29:04;;;;;;;0.55;0.55;;;8.10;99.90;;;;;;5014752;28;20186;-73
2022/01/31 09:31:29;;;;;;;3.08;0.85;;;8.80;99.90;;;;;;5014583;28;20179;-73
2022/01/31 09:33:55;;;;;;;0.93;0.70;;;9.40;99.90;;;;;;5014629;28;20184;-73
2022/01/31 09:36:22;;;;;;;0.80;0.80;;;9.70;99.90;;;;;;5014983;28;20647;-73
2022/01/31 09:38:49;;;;;;;0.60;0.60;;;9.50;99.90;;;;;;5012328;28;20231;-74
2022/01/31 09:41:19;;;;;;;0.60;0.60;;;9.20;99.90;;;;;;5014521;28;20226;-70
2022/01/31 09:48:56;;;;;;;1.48;0.80;;;8.60;99.90;;;;;;4994960;28;20203;-68
2022/01/31 09:51:23;;;;;;;0.93;0.80;;;8.70;99.90;;;;;;4995549;28;20270;-66
2022/01/31 09:53:50;;;;;;;3.28;1.70;;;8.70;99.90;;;;;;5014219;28;20174;-70
2022/01/31 09:56:22;;;;;;;0.90;0.90;;;8.60;99.90;;;;;;5008952;28;20250;-70
2022/01/31 09:58:50;;;;;;;0.60;0.60;;;8.40;99.90;;;;;;5020593;28;20191;-71
2022/01/31 10:01:26;;;;;;;1.52;1.33;;;8.30;99.90;;;;;;5023770;28;20190;-69
2022/01/31 10:03:55;;;;;;;1.40;0.95;;;8.10;99.90;;;;;;5023123;28;20228;-70
2022/01/31 10:06:27;;;;;;;2.65;1.15;;;7.90;99.90;;;;;;5018911;28;20178;-71
2022/01/31 10:09:21;;;;;;;0.80;0.70;;;7.70;99.90;;;;;;5014549;28;20222;-70
2022/01/31 10:11:56;;;;;;;1.60;1.50;;;7.40;99.90;;;;;;5014588;28;20175;-67
2022/01/31 10:17:31;;;;;;;1.00;0.90;;;7.20;99.90;;;;;;5013644;28;20192;-70
2022/01/31 10:20:00;;;;;;;0.90;0.90;;;7.00;99.90;;;;;;5013918;28;20204;-70
2022/01/31 10:22:28;;;;;;;0.85;0.85;;;7.00;99.90;;;;;;5014378;28;20166;-71
2022/01/31 10:24:58;;;;;;;3.60;1.05;;;7.00;99.90;;;;;;5014057;28;20664;-70
2022/01/31 10:27:29;;;;;;;1.08;1.08;;;7.10;99.90;;;;;;5013855;28;20244;-71
2022/01/31 10:30:13;;;;;;;0.95;0.90;;;7.00;99.90;;;;;;5013262;28;20212;-71
2022/01/31 10:32:42;;;;;;;0.60;0.60;;;7.00;99.90;;;;;;5012184;28;20271;-73
2022/01/31 10:35:13;;;;;;;1.88;1.10;;;7.00;99.90;;;;;;5014034;28;20171;-72
2022/01/31 10:37:41;;;;;;;4.63;1.20;;;7.10;99.90;;;;;;5013082;28;20197;-73
2022/01/31 10:51:46;;;;;;;0.40;0.40;;;7.00;99.90;;;;;;4997352;28;20185;-72
2022/01/31 10:54:12;;;;;;;1.02;0.90;;;7.00;99.90;;;;;;5013084;28;20181;-71
2022/01/31 10:56:48;;;;;;;5.47;2.28;;;7.00;99.90;;;;;;4993908;28;20197;-72
2022/01/31 10:59:17;;;;;;;3.08;0.90;;;7.00;99.90;;;;;;5004877;28;20198;-71
2022/01/31 11:02:06;;;;;;;2.00;1.30;;;7.10;99.90;;;;;;5013348;28;20199;-73
2022/01/31 11:04:37;;;;;;;0.80;0.80;;;7.10;99.90;;;;;;5014184;28;20169;-73
2022/01/31 11:07:08;;;;;;;0.95;0.95;;;7.00;99.90;;;;;;5012935;28;20174;-69
2022/01/31 11:09:34;;;;;;;2.05;1.95;;;7.10;99.90;;;;;;5011466;28;20225;-71
2022/01/31 11:12:01;;;;;;;1.73;1.63;;;7.10;99.90;;;;;;5012205;28;20216;-70
2022/01/31 11:14:27;;;;;;;1.77;1.20;;;7.20;99.90;;;;;;5012674;28;20914;-71
2022/01/31 11:16:57;;;;;;;1.70;0.60;;;7.30;99.90;;;;;;5010637;28;20237;-71
2022/01/31 11:19:32;;;;;;;1.77;1.67;;;7.40;99.90;;;;;;5025578;28;20831;-71
2022/01/31 11:22:04;;;;;;;0.98;0.88;;;7.40;99.90;;;;;;5010289;28;20178;-72
2022/01/31 11:24:36;;;;;;;0.95;0.82;;;7.50;99.90;;;;;;5012981;28;20659;-72
2022/01/31 11:27:07;;;;;;;3.10;1.02;;;7.50;99.90;;;;;;5028843;28;20236;-70
2022/01/31 11:29:37;;;;;;;0.75;0.70;;;7.50;99.90;;;;;;5013113;28;20182;-72
2022/01/31 11:32:04;;;;;;;0.88;0.50;;;7.60;99.90;;;;;;5012643;28;20179;-71
2022/01/31 11:34:30;;;;;;;0.75;0.63;;;7.60;99.90;;;;;;5012450;28;20179;-72
2022/01/31 11:36:56;;;;;;;1.40;0.90;;;7.60;99.90;;;;;;5009026;28;20206;-70
2022/01/31 11:39:22;;;;;;;1.75;1.05;;;7.60;99.90;;;;;;5011444;28;20217;-71
2022/01/31 11:41:55;;;;;;;0.50;0.50;;;7.70;99.90;;;;;;5013036;28;20640;-70
2022/01/31 11:44:48;;;;;;;0.98;0.98;;;7.60;99.90;;;;;;5011317;28;20633;-73
2022/01/31 11:47:14;;;;;;;1.35;0.80;;;7.60;99.90;;;;;;5011358;28;20183;-71
2022/01/31 11:49:52;;;;;;;4.10;0.90;;;7.50;99.90;;;;;;5010570;28;20816;-72
2022/01/31 11:52:20;;;;;;;2.15;0.90;;;7.40;99.90;;;;;;5011071;28;20313;-70
2022/01/31 11:54:50;;;;;;;1.55;1.20;;;7.40;99.90;;;;;;5011985;28;20178;-70
2022/01/31 11:57:20;;;;;;;0.60;0.60;;;7.30;99.90;;;;;;5011937;28;20195;-72
2022/01/31 11:59:51;;;;;;;0.98;0.98;;;7.20;99.90;;;;;;5010202;28;20221;-70
2022/01/31 12:02:19;;;;;;;1.23;0.93;;;7.10;99.90;;;;;;5009636;28;20174;-71
2022/01/31 12:04:49;;;;;;;0.50;0.50;;;6.90;99.90;;;;;;5015492;28;20182;-71
2022/01/31 12:07:39;;;;;;;0.98;0.60;;;6.80;99.90;;;;;;5014489;28;20181;-71
2022/01/31 12:10:30;;;;;;;0.52;0.50;;;6.70;99.90;;;;;;5013265;28;20204;-72
2022/01/31 12:13:01;;;;;;;0.60;0.60;;;6.70;99.90;;;;;;5015037;28;20266;-72
2022/01/31 12:24:44;;;;;;;2.30;0.85;;;6.60;99.90;;;;;;4994004;28;20182;-72
2022/01/31 12:27:15;;;;;;;0.55;0.55;;;6.70;99.90;;;;;;4987491;28;20190;-71
2022/01/31 12:29:48;;;;;;;0.60;0.60;;;6.70;99.90;;;;;;4990423;28;20547;-71
2022/01/31 12:32:18;;;;;;;2.53;0.93;;;6.80;99.90;;;;;;4992431;28;20314;-71
2022/01/31 12:34:59;;;;;;;0.60;0.60;;;6.80;99.90;;;;;;4993649;28;20182;-72
2022/01/31 12:37:34;;;;;;;0.68;0.68;;;6.80;99.90;;;;;;4974528;28;20219;-71
2022/01/31 12:40:20;;;;;;;1.25;0.93;;;6.80;99.90;;;;;;4979436;28;20218;-70
2022/01/31 12:45:27;;;;;;;1.40;1.02;;;6.70;99.90;;;;;;4975693;28;20226;-70
2022/01/31 12:48:15;;;;;;;1.10;1.00;;;6.70;99.90;;;;;;4990797;28;20194;-71
2022/01/31 12:50:50;;;;;;;0.80;0.80;;;6.70;99.90;;;;;;4993498;28;20215;-70
2022/01/31 12:56:00;;;;;;;1.63;1.15;;;6.60;99.90;;;;;;4994383;28;20230;-70
2022/01/31 12:58:29;;;;;;;0.75;0.75;;;6.70;99.90;;;;;;5010343;28;20207;-70
2022/01/31 13:00:56;;;;;;;0.82;0.82;;;6.70;99.90;;;;;;5014910;28;20170;-70
2022/01/31 13:03:33;;;;;;;0.77;0.77;;;6.70;99.90;;;;;;5015257;28;20206;-71
2022/01/31 13:05:59;;;;;;;0.70;0.70;;;6.80;99.90;;;;;;5014132;28;20514;-75
2022/01/31 13:08:24;;;;;;;0.87;0.87;;;6.80;99.90;;;;;;5012256;28;20210;-75
2022/01/31 13:10:55;;;;;;;1.17;1.07;;;6.80;99.90;;;;;;5013843;28;20240;-76
2022/01/31 13:13:37;;;;;;;2.05;1.25;;;6.80;99.90;;;;;;5013579;28;20174;-75
2022/01/31 13:16:08;;;;;;;1.15;1.00;;;6.80;99.90;;;;;;5010933;28;20178;-75
2022/01/31 13:18:34;;;;;;;0.60;0.60;;;6.70;99.90;;;;;;5010149;28;20171;-73
2022/01/31 13:21:06;;;;;;;4.30;0.83;;;6.70;99.90;;;;;;5014024;28;20689;-76
2022/01/31 13:23:33;;;;;;;1.05;1.05;;;6.60;99.90;;;;;;5011896;28;20513;-75
2022/01/31 13:26:02;;;;;;;1.38;1.30;;;6.60;99.90;;;;;;5013858;28;20176;-76
2022/01/31 13:28:27;;;;;;;4.90;2.15;;;6.60;99.90;;;;;;5012717;28;20178;-75
2022/01/31 13:30:53;;;;;;;0.80;0.67;;;6.50;99.90;;;;;;5011231;28;20201;-75
2022/01/31 13:33:19;;;;;;;3.50;0.70;;;6.50;99.90;;;;;;5011703;28;20640;-75
2022/01/31 13:35:47;;;;;;;0.65;0.65;;;6.40;99.90;;;;;;5011968;28;20171;-76
2022/01/31 13:38:20;;;;;;;1.15;0.80;;;6.40;99.90;;;;;;5011627;28;20252;-76
2022/01/31 13:40:52;;;;;;;2.83;2.63;;;6.30;99.90;;;;;;5013363;28;20185;-75